Time;durP1;ratioP1;P1;durP2;ratioP2;P2;SDS_P1;SDS_P2;PMS_P1;PMS_P2;Temp;Humidity;BMP_temperature;BMP_pressure;BME280_temperature;BME280_humidity;BME280_pressure;Samples;Min_cycle;Max_cycle;Signal;HPM_P1;HPM_P2
2023/05/26 00:00:39;;;;;;;0.25;0.25;;;;;;;15.47;55.48;103084.97;5050334;28;20032;-63
2023/05/26 00:03:04;;;;;;;0.28;0.28;;;;;;;15.42;55.63;103083.91;5050575;28;20400;-63
2023/05/26 00:05:29;;;;;;;0.20;0.20;;;;;;;15.25;55.98;103086.06;5050190;28;20037;-63
2023/05/26 00:07:55;;;;;;;0.20;0.20;;;;;;;15.65;54.99;103084.41;5049265;28;20029;-63
2023/05/26 00:10:21;;;;;;;0.30;0.30;;;;;;;15.62;54.66;103088.38;5050263;28;20044;-61
2023/05/26 00:12:46;;;;;;;0.30;0.30;;;;;;;15.96;53.48;103086.56;5049875;28;20059;-61
2023/05/26 00:15:11;;;;;;;0.13;0.13;;;;;;;15.38;54.45;103096.16;5050647;28;20017;-63
2023/05/26 00:17:37;;;;;;;0.30;0.30;;;;;;;15.30;56.40;103094.44;5049918;28;20044;-63
2023/05/26 00:20:07;;;;;;;0.20;0.20;;;;;;;15.92;53.75;103091.56;5049838;28;20463;-62
2023/05/26 00:22:33;;;;;;;0.20;0.20;;;;;;;15.32;55.33;103095.09;5049946;28;20118;-63
2023/05/26 00:24:58;;;;;;;0.20;0.20;;;;;;;15.53;55.61;103086.88;5049941;28;20088;-64
2023/05/26 00:27:23;;;;;;;0.30;0.30;;;;;;;15.59;54.39;103090.63;5049763;28;20039;-64
2023/05/26 00:29:49;;;;;;;0.20;0.20;;;;;;;15.76;54.55;103087.34;5050389;28;20536;-62
2023/05/26 00:32:16;;;;;;;0.20;0.20;;;;;;;15.55;54.36;103087.50;5049833;28;20143;-62
2023/05/26 00:34:42;;;;;;;0.20;0.20;;;;;;;15.42;55.15;103090.16;5049441;28;20090;-62
2023/05/26 00:37:07;;;;;;;0.28;0.28;;;;;;;15.14;56.48;103089.38;5049635;28;20504;-63
2023/05/26 00:39:32;;;;;;;0.20;0.20;;;;;;;15.57;54.65;103090.00;5041013;28;20036;-64
2023/05/26 00:41:58;;;;;;;0.20;0.20;;;;;;;15.95;53.51;103087.59;5046940;28;20029;-62
2023/05/26 00:44:24;;;;;;;0.30;0.30;;;;;;;15.27;55.39;103092.13;5049337;28;20048;-63
2023/05/26 00:46:49;;;;;;;0.30;0.30;;;;;;;15.70;54.73;103084.63;5049466;28;20462;-61
2023/05/26 00:49:15;;;;;;;0.20;0.20;;;;;;;15.56;54.23;103091.91;5049124;28;20558;-63
2023/05/26 00:51:43;;;;;;;0.20;0.20;;;;;;;15.58;54.52;103078.13;5049054;28;20132;-62
2023/05/26 00:54:09;;;;;;;0.13;0.13;;;;;;;15.59;54.76;103077.06;5049678;28;20025;-63
2023/05/26 00:56:35;;;;;;;0.28;0.28;;;;;;;15.08;55.80;103084.75;5049168;28;20033;-63
2023/05/26 00:59:02;;;;;;;0.20;0.20;;;;;;;15.59;54.48;103080.63;5049022;28;20044;-62
2023/05/26 01:01:29;;;;;;;0.13;0.13;;;;;;;15.59;53.89;103075.22;5049375;28;20059;-63
2023/05/26 01:03:55;;;;;;;0.10;0.10;;;;;;;15.72;53.89;103083.38;5048892;28;20516;-63
2023/05/26 01:06:22;;;;;;;0.10;0.10;;;;;;;15.70;53.77;103082.75;5049682;28;20032;-62
2023/05/26 01:08:48;;;;;;;0.20;0.20;;;;;;;15.80;53.34;103082.38;5049797;28;20500;-64
2023/05/26 01:11:45;;;;;;;0.20;0.20;;;;;;;15.51;54.54;103096.22;5048789;28;20500;-66
2023/05/26 01:14:19;;;;;;;0.20;0.20;;;;;;;15.83;53.75;103084.66;5015566;28;20414;-63
2023/05/26 01:16:56;;;;;;;0.20;0.20;;;;;;;15.80;53.99;103090.50;5048777;28;20107;-62
2023/05/26 01:19:37;;;;;;;0.20;0.20;;;;;;;15.42;54.42;103092.88;5048616;28;20125;-61
2023/05/26 01:22:20;;;;;;;0.20;0.20;;;;;;;15.57;54.25;103096.25;5048975;28;20268;-64
2023/05/26 01:25:16;;;;;;;0.10;0.10;;;;;;;15.49;54.91;103092.88;5048834;28;20438;-63
2023/05/26 01:28:03;;;;;;;0.32;0.32;;;;;;;15.19;56.07;103094.19;5042942;28;20219;-64
2023/05/26 01:30:29;;;;;;;0.10;0.10;;;;;;;14.84;56.04;103105.00;5040963;28;20032;-65
2023/05/26 01:32:54;;;;;;;0.20;0.20;;;;;;;15.33;55.03;103104.06;5049330;28;20032;-62
2023/05/26 01:35:20;;;;;;;0.20;0.20;;;;;;;15.28;54.93;103109.22;5030366;28;20600;-63
2023/05/26 01:37:46;;;;;;;0.10;0.10;;;;;;;15.16;54.95;103114.38;5047579;28;20025;-66
2023/05/26 01:40:13;;;;;;;0.20;0.20;;;;;;;15.25;54.80;103105.03;5046871;28;20029;-63
2023/05/26 01:42:48;;;;;;;0.20;0.20;;;;;;;15.44;54.79;103108.94;5048562;28;20033;-63
2023/05/26 01:45:21;;;;;;;0.20;0.20;;;;;;;15.22;54.66;103104.63;5030694;28;20033;-62
2023/05/26 01:47:51;;;;;;;0.30;0.30;;;;;;;15.09;55.52;103109.97;5048555;28;20049;-64
2023/05/26 01:50:21;;;;;;;0.23;0.23;;;;;;;15.04;55.69;103107.84;5048294;28;20029;-64
2023/05/26 01:52:51;;;;;;;0.10;0.10;;;;;;;15.62;53.94;103107.34;5048679;28;20590;-63
2023/05/26 01:55:20;;;;;;;0.20;0.20;;;;;;;14.79;55.99;103112.91;5048211;28;20033;-63
2023/05/26 01:57:46;;;;;;;0.30;0.30;;;;;;;14.43;56.82;103109.50;5048423;28;20041;-63
2023/05/26 02:00:15;;;;;;;0.10;0.10;;;;;;;15.14;55.50;103113.75;5048948;28;20017;-62
2023/05/26 02:02:40;;;;;;;0.17;0.17;;;;;;;15.23;54.04;103107.16;5048257;28;20053;-63
2023/05/26 02:05:06;;;;;;;0.20;0.20;;;;;;;15.03;55.23;103113.47;5048104;28;20033;-65
2023/05/26 02:07:34;;;;;;;0.20;0.20;;;;;;;14.74;55.93;103120.75;5030095;28;20036;-63
2023/05/26 02:10:00;;;;;;;0.20;0.20;;;;;;;14.76;56.85;103115.19;5048260;28;20033;-63
2023/05/26 02:12:25;;;;;;;0.20;0.20;;;;;;;15.01;55.58;103127.22;5048227;28;20122;-63
2023/05/26 02:14:50;;;;;;;0.20;0.20;;;;;;;14.89;55.94;103121.53;5048831;28;20112;-63
2023/05/26 02:17:17;;;;;;;0.20;0.20;;;;;;;14.72;56.05;103122.03;5048111;28;20131;-62
2023/05/26 02:19:42;;;;;;;0.13;0.13;;;;;;;14.40;57.24;103126.13;5048233;28;20385;-63
2023/05/26 02:22:07;;;;;;;0.20;0.20;;;;;;;14.52;57.19;103121.03;5048188;28;20032;-63
2023/05/26 02:24:33;;;;;;;0.20;0.20;;;;;;;14.80;56.15;103130.00;5048159;28;20032;-63
2023/05/26 02:26:58;;;;;;;0.30;0.30;;;;;;;14.66;56.51;103134.44;5048788;28;20036;-64
2023/05/26 02:29:23;;;;;;;0.20;0.20;;;;;;;15.29;54.39;103133.41;5058307;28;20552;-63
2023/05/26 02:31:49;;;;;;;0.30;0.30;;;;;;;14.61;56.96;103134.22;5052911;28;20464;-62
2023/05/26 02:34:15;;;;;;;0.17;0.17;;;;;;;15.05;55.07;103141.19;5048565;28;20553;-63
2023/05/26 02:36:40;;;;;;;0.20;0.20;;;;;;;14.75;56.51;103130.56;5052128;28;20052;-63
2023/05/26 02:39:06;;;;;;;0.20;0.20;;;;;;;14.96;55.88;103144.03;5052173;28;20160;-63
2023/05/26 02:41:31;;;;;;;0.20;0.20;;;;;;;14.95;55.30;103136.13;5051815;28;20025;-63
2023/05/26 02:43:57;;;;;;;0.10;0.10;;;;;;;14.80;55.63;103138.94;5051679;28;20402;-64
2023/05/26 02:46:22;;;;;;;0.10;0.10;;;;;;;14.48;56.43;103133.25;5051653;28;20029;-64
2023/05/26 02:48:47;;;;;;;0.35;0.35;;;;;;;15.02;55.64;103133.47;5051590;28;20053;-62
2023/05/26 02:51:13;;;;;;;0.20;0.20;;;;;;;15.05;55.30;103135.78;5052217;28;20112;-63
2023/05/26 02:53:39;;;;;;;0.20;0.20;;;;;;;15.03;55.56;103140.53;5051640;28;20155;-62
2023/05/26 02:56:06;;;;;;;0.15;0.15;;;;;;;14.83;56.13;103138.56;5051559;28;20036;-64
2023/05/26 02:58:32;;;;;;;0.20;0.20;;;;;;;15.19;55.46;103129.41;5051465;28;20417;-64
2023/05/26 03:00:57;;;;;;;3.38;1.33;;;;;;;15.16;55.41;103135.19;5051238;28;20040;-63
2023/05/26 03:03:22;;;;;;;0.10;0.10;;;;;;;15.05;55.27;103135.78;5051447;28;20056;-63
2023/05/26 03:05:48;;;;;;;0.22;0.22;;;;;;;14.86;55.54;103138.13;5051496;28;20142;-64
2023/05/26 03:08:13;;;;;;;0.20;0.20;;;;;;;15.06;55.71;103145.56;5051302;28;20032;-65
2023/05/26 03:10:39;;;;;;;0.20;0.20;;;;;;;15.51;54.11;103132.31;5051153;28;20512;-62
2023/05/26 03:13:05;;;;;;;1.38;0.50;;;;;;;14.64;57.21;103139.22;5050999;28;20136;-63
2023/05/26 03:15:35;;;;;;;0.50;0.50;;;;;;;14.90;56.40;103138.56;5032635;28;20049;-63
2023/05/26 03:18:00;;;;;;;0.20;0.20;;;;;;;14.72;56.27;103143.66;5051555;28;20489;-62
2023/05/26 03:20:26;;;;;;;0.20;0.20;;;;;;;14.40;57.44;103142.34;5050822;28;20062;-63
2023/05/26 03:22:51;;;;;;;0.20;0.20;;;;;;;15.22;55.08;103145.25;5051239;28;20087;-64
2023/05/26 03:25:16;;;;;;;0.20;0.20;;;;;;;15.32;54.43;103148.44;5058239;28;20076;-64
2023/05/26 03:27:42;;;;;;;0.10;0.10;;;;;;;14.47;57.60;103145.09;5053792;28;20115;-63
2023/05/26 03:30:08;;;;;;;0.20;0.20;;;;;;;14.85;56.38;103149.19;5048020;28;20504;-63
2023/05/26 03:32:33;;;;;;;0.10;0.10;;;;;;;14.91;55.75;103149.22;5050569;28;20102;-62
2023/05/26 03:34:59;;;;;;;0.20;0.20;;;;;;;15.19;55.24;103151.06;5050600;28;20036;-65
2023/05/26 03:37:24;;;;;;;0.25;0.25;;;;;;;14.93;55.64;103158.00;5050783;28;20128;-63
2023/05/26 03:39:51;;;;;;;0.17;0.17;;;;;;;15.11;54.96;103154.78;5050585;28;20497;-63
2023/05/26 03:42:16;;;;;;;0.20;0.20;;;;;;;14.81;56.71;103156.84;5051553;28;20258;-63
2023/05/26 03:44:42;;;;;;;0.10;0.10;;;;;;;14.72;56.40;103158.00;5050605;28;20044;-62
2023/05/26 03:47:09;;;;;;;0.20;0.20;;;;;;;15.08;55.35;103157.88;5050813;28;20135;-64
2023/05/26 03:49:34;;;;;;;0.20;0.20;;;;;;;14.75;55.91;103152.22;5050202;28;20029;-62
2023/05/26 03:52:00;;;;;;;0.15;0.15;;;;;;;13.96;59.51;103160.56;5050446;28;20071;-64
2023/05/26 03:54:25;;;;;;;0.20;0.20;;;;;;;14.26;58.11;103150.50;5050283;28;20036;-62
2023/05/26 03:56:50;;;;;;;0.15;0.15;;;;;;;14.01;59.30;103153.56;5050832;28;20111;-64
2023/05/26 03:59:16;;;;;;;0.30;0.30;;;;;;;14.30;58.10;103155.38;5050568;28;20068;-63
2023/05/26 04:01:41;;;;;;;0.30;0.30;;;;;;;14.50;58.08;103155.56;5048296;28;20591;-64
2023/05/26 04:04:07;;;;;;;0.10;0.10;;;;;;;14.46;57.66;103154.25;5045135;28;20394;-63
2023/05/26 04:06:32;;;;;;;0.20;0.20;;;;;;;14.84;56.24;103151.03;5044287;28;20596;-63
2023/05/26 04:09:00;;;;;;;0.20;0.20;;;;;;;15.02;55.93;103153.25;5050170;28;20032;-63
2023/05/26 04:11:26;;;;;;;0.20;0.20;;;;;;;14.92;56.42;103158.16;5049375;28;20057;-63
2023/05/26 04:13:51;;;;;;;0.20;0.20;;;;;;;15.17;55.58;103162.13;5039241;28;20064;-64
2023/05/26 04:16:16;;;;;;;0.20;0.20;;;;;;;15.23;55.37;103157.75;5045489;28;20560;-62
2023/05/26 04:18:42;;;;;;;0.20;0.20;;;;;;;15.32;55.25;103162.81;5049860;28;20119;-64
2023/05/26 04:21:08;;;;;;;0.30;0.30;;;;;;;15.43;54.93;103161.47;5032055;28;20556;-65
2023/05/26 04:23:33;;;;;;;0.20;0.20;;;;;;;15.81;53.62;103154.53;5049864;28;20128;-64
2023/05/26 04:26:00;;;;;;;0.30;0.30;;;;;;;15.55;54.52;103154.41;5046914;28;20324;-63
2023/05/26 04:28:26;;;;;;;0.10;0.10;;;;;;;15.50;54.52;103157.75;5033981;28;20493;-63
2023/05/26 04:30:51;;;;;;;0.20;0.20;;;;;;;15.52;54.36;103154.81;5031699;28;20037;-65
2023/05/26 04:33:17;;;;;;;0.20;0.20;;;;;;;16.32;51.87;103152.97;5050217;28;20608;-65
2023/05/26 04:35:44;;;;;;;0.25;0.25;;;;;;;15.78;53.58;103161.19;5049077;28;20029;-64
2023/05/26 04:38:12;;;;;;;0.20;0.20;;;;;;;15.97;53.09;103159.59;5049706;28;20068;-65
2023/05/26 04:40:38;;;;;;;0.10;0.10;;;;;;;15.60;54.15;103169.06;5048910;28;20052;-63
2023/05/26 04:43:04;;;;;;;0.20;0.20;;;;;;;16.07;53.28;103172.75;5060026;28;20120;-64
2023/05/26 04:45:30;;;;;;;0.20;0.20;;;;;;;16.21;52.60;103174.47;5059638;28;20426;-63
2023/05/26 04:47:56;;;;;;;0.10;0.10;;;;;;;16.53;51.34;103176.41;5060348;28;20052;-64
2023/05/26 04:50:22;;;;;;;0.20;0.20;;;;;;;16.40;52.09;103184.50;5058156;28;20443;-64
2023/05/26 04:52:51;;;;;;;0.25;0.25;;;;;;;16.80;50.67;103178.09;5059287;28;20043;-65
2023/05/26 04:55:16;;;;;;;0.10;0.10;;;;;;;16.28;52.47;103189.69;5039469;28;20037;-64
2023/05/26 04:57:43;;;;;;;0.32;0.32;;;;;;;17.04;50.23;103188.28;5058292;28;20047;-63
2023/05/26 05:00:13;;;;;;;0.20;0.20;;;;;;;17.03;50.27;103188.50;5042408;28;20044;-64
2023/05/26 05:02:39;;;;;;;0.20;0.20;;;;;;;16.35;52.32;103195.16;5040921;28;20025;-65
2023/05/26 05:05:05;;;;;;;0.20;0.20;;;;;;;16.05;52.49;103188.41;5055709;28;20029;-64
2023/05/26 05:07:31;;;;;;;0.20;0.20;;;;;;;16.15;52.94;103192.41;5054123;28;20523;-64
2023/05/26 05:09:56;;;;;;;0.20;0.20;;;;;;;16.35;52.26;103187.81;5054952;28;20036;-63
2023/05/26 05:12:21;;;;;;;0.25;0.25;;;;;;;15.63;54.05;103197.59;5058514;28;20098;-65
2023/05/26 05:14:47;;;;;;;0.10;0.10;;;;;;;16.27;52.86;103193.47;5048829;28;20159;-64
2023/05/26 05:17:12;;;;;;;0.10;0.10;;;;;;;15.64;54.68;103199.28;5051702;28;20048;-64
2023/05/26 05:19:37;;;;;;;0.20;0.20;;;;;;;15.91;53.62;103197.50;5052527;28;20043;-63
2023/05/26 05:22:03;;;;;;;0.20;0.20;;;;;;;16.39;52.18;103197.22;5036673;28;20615;-64
2023/05/26 05:24:28;;;;;;;0.10;0.10;;;;;;;16.34;52.30;103197.03;5048813;28;20400;-62
2023/05/26 05:26:54;;;;;;;0.10;0.10;;;;;;;16.33;52.43;103208.09;5049441;28;20048;-64
2023/05/26 05:29:19;;;;;;;0.20;0.20;;;;;;;16.58;51.21;103203.78;5048764;28;20678;-62
2023/05/26 05:31:45;;;;;;;0.30;0.30;;;;;;;16.81;50.95;103211.50;5048656;28;20536;-64
2023/05/26 05:34:10;;;;;;;0.10;0.10;;;;;;;16.62;51.32;103205.88;5048601;28;20148;-64
2023/05/26 05:36:35;;;;;;;0.10;0.10;;;;;;;16.89;50.98;103209.41;5048611;28;20055;-63
2023/05/26 05:39:01;;;;;;;0.20;0.20;;;;;;;16.95;51.10;103219.44;5048741;28;20547;-64
2023/05/26 05:41:26;;;;;;;0.20;0.20;;;;;;;15.88;54.01;103217.72;5048807;28;20405;-65
2023/05/26 05:43:56;;;;;;;0.20;0.20;;;;;;;16.50;52.67;103223.81;5048110;28;20036;-64
2023/05/26 05:46:24;;;;;;;0.20;0.20;;;;;;;17.33;49.68;103219.63;5048203;28;20091;-64
2023/05/26 05:48:49;;;;;;;0.30;0.30;;;;;;;17.51;50.04;103212.50;5052334;28;20032;-64
2023/05/26 05:51:15;;;;;;;0.17;0.17;;;;;;;18.18;47.34;103219.34;5058680;28;20033;-63
2023/05/26 05:53:40;;;;;;;0.20;0.20;;;;;;;17.40;49.60;103221.28;5058251;28;20040;-62
2023/05/26 05:56:06;;;;;;;0.10;0.10;;;;;;;17.92;47.73;103217.59;5047730;28;20041;-64
2023/05/26 05:58:31;;;;;;;0.25;0.25;;;;;;;18.38;47.09;103222.78;5048092;28;20128;-63
2023/05/26 06:00:57;;;;;;;0.20;0.20;;;;;;;17.60;48.20;103234.84;5047797;28;20029;-62
2023/05/26 06:03:22;;;;;;;0.10;0.10;;;;;;;17.81;48.41;103229.13;5029207;28;20090;-64
2023/05/26 06:05:47;;;;;;;0.22;0.22;;;;;;;17.80;48.23;103237.50;5048103;28;20350;-63
2023/05/26 06:08:13;;;;;;;0.20;0.20;;;;;;;18.39;47.51;103241.63;5050461;28;20036;-64
2023/05/26 06:10:38;;;;;;;0.10;0.10;;;;;;;18.38;46.55;103239.09;5050451;28;20402;-63
2023/05/26 06:13:03;;;;;;;0.30;0.30;;;;;;;18.31;47.41;103241.03;5059856;28;20063;-63
2023/05/26 06:15:29;;;;;;;0.20;0.20;;;;;;;17.98;48.20;103243.94;5056544;28;20416;-63
2023/05/26 06:17:54;;;;;;;0.20;0.20;;;;;;;17.98;48.50;103234.94;5050499;28;20029;-63
2023/05/26 06:20:20;;;;;;;0.10;0.10;;;;;;;18.38;47.21;103239.09;5051326;28;20037;-64
2023/05/26 06:22:45;;;;;;;0.10;0.10;;;;;;;17.74;48.91;103241.94;5034128;28;20033;-65
2023/05/26 06:25:11;;;;;;;0.17;0.17;;;;;;;18.10;46.84;103241.38;5052062;28;20029;-64
2023/05/26 06:27:36;;;;;;;0.25;0.25;;;;;;;18.39;46.07;103236.19;5052031;28;20369;-63
2023/05/26 06:30:01;;;;;;;0.20;0.20;;;;;;;17.62;48.67;103249.06;5052398;28;20032;-63
2023/05/26 06:32:27;;;;;;;0.30;0.30;;;;;;;17.69;47.65;103246.34;5051614;28;20119;-64
2023/05/26 06:34:52;;;;;;;0.10;0.10;;;;;;;18.09;47.13;103251.41;5051902;28;20555;-62
2023/05/26 06:37:18;;;;;;;0.28;0.28;;;;;;;18.56;46.24;103249.28;5051913;28;20036;-64
2023/05/26 06:39:43;;;;;;;0.10;0.10;;;;;;;18.59;45.50;103240.69;5051780;28;20032;-64
2023/05/26 06:42:08;;;;;;;0.20;0.20;;;;;;;18.37;46.15;103248.34;5052232;28;20016;-64
2023/05/26 06:44:34;;;;;;;0.20;0.20;;;;;;;18.73;45.42;103242.28;5051767;28;20037;-63
2023/05/26 06:47:00;;;;;;;0.13;0.13;;;;;;;18.86;45.12;103242.16;5051824;28;20048;-64
2023/05/26 06:49:25;;;;;;;0.15;0.15;;;;;;;18.11;47.12;103248.47;5051719;28;20404;-65
2023/05/26 06:51:51;;;;;;;0.20;0.20;;;;;;;18.83;45.65;103243.44;5051369;28;20033;-63
2023/05/26 06:54:16;;;;;;;0.20;0.20;;;;;;;19.34;44.58;103245.94;5051986;28;20522;-64
2023/05/26 06:56:41;;;;;;;0.10;0.10;;;;;;;17.91;47.54;103245.00;5050999;28;20048;-65
2023/05/26 06:59:07;;;;;;;0.20;0.20;;;;;;;16.96;51.02;103251.00;5051286;28;20053;-63
2023/05/26 07:01:32;;;;;;;0.17;0.17;;;;;;;17.57;48.83;103248.91;5051462;28;20129;-63
2023/05/26 07:03:58;;;;;;;0.20;0.20;;;;;;;17.82;47.84;103244.41;5051210;28;20064;-63
2023/05/26 07:06:23;;;;;;;0.20;0.20;;;;;;;18.70;46.28;103246.28;5051017;28;20025;-64
2023/05/26 07:08:49;;;;;;;0.20;0.20;;;;;;;18.29;46.70;103243.16;5051760;28;20103;-62
2023/05/26 07:11:14;;;;;;;0.30;0.28;;;;;;;18.28;47.30;103252.34;5052600;28;20033;-63
2023/05/26 07:13:40;;;;;;;0.13;0.13;;;;;;;18.17;47.18;103253.91;5049946;28;20048;-64
2023/05/26 07:16:05;;;;;;;0.20;0.20;;;;;;;18.68;45.69;103251.09;5047123;28;20025;-63
2023/05/26 07:18:31;;;;;;;0.22;0.22;;;;;;;18.65;45.52;103261.59;5050017;28;20123;-63
2023/05/26 07:20:56;;;;;;;0.20;0.20;;;;;;;19.08;44.47;103265.25;5050229;28;20809;-62
2023/05/26 07:23:22;;;;;;;0.20;0.20;;;;;;;17.81;47.76;103258.25;5031859;28;20037;-62
2023/05/26 07:25:47;;;;;;;0.20;0.20;;;;;;;17.97;47.04;103264.03;5031712;28;20447;-63
2023/05/26 07:28:12;;;;;;;0.22;0.22;;;;;;;18.20;46.64;103260.78;5049682;28;20037;-62
2023/05/26 07:30:38;;;;;;;0.22;0.22;;;;;;;18.02;46.90;103256.06;5049613;28;20017;-63
2023/05/26 07:33:03;;;;;;;0.30;0.30;;;;;;;18.38;46.49;103255.44;5050073;28;20473;-64
2023/05/26 07:35:28;;;;;;;0.20;0.20;;;;;;;19.10;45.30;103254.97;5049742;28;20123;-63
2023/05/26 07:37:55;;;;;;;0.20;0.20;;;;;;;18.58;46.91;103247.19;5049426;28;20040;-64
2023/05/26 07:40:20;;;;;;;0.20;0.20;;;;;;;18.88;45.27;103254.53;5049528;28;20134;-62
2023/05/26 07:42:46;;;;;;;0.10;0.10;;;;;;;20.62;41.93;103247.50;5049422;28;20029;-64
2023/05/26 07:45:11;;;;;;;0.20;0.20;;;;;;;20.80;40.77;103245.53;5050287;28;20420;-63
2023/05/26 07:47:37;;;;;;;0.10;0.10;;;;;;;20.58;40.57;103246.34;5049609;28;20416;-63
2023/05/26 07:50:02;;;;;;;0.20;0.20;;;;;;;20.22;40.90;103243.69;5049508;28;20036;-63
2023/05/26 07:52:28;;;;;;;0.30;0.30;;;;;;;19.70;42.57;103247.88;5049125;28;20041;-64
2023/05/26 07:54:53;;;;;;;0.93;0.68;;;;;;;20.20;41.18;103240.34;5049040;28;20037;-63
2023/05/26 07:57:19;;;;;;;0.55;0.55;;;;;;;20.66;40.50;103229.56;5049706;28;20029;-65
2023/05/26 07:59:44;;;;;;;0.10;0.10;;;;;;;20.21;41.01;103245.59;5049013;28;20033;-65
2023/05/26 08:02:10;;;;;;;0.20;0.20;;;;;;;19.80;42.61;103229.06;5030954;28;20087;-65
2023/05/26 08:04:36;;;;;;;0.20;0.20;;;;;;;20.56;40.19;103230.16;5049339;28;20396;-63
2023/05/26 08:07:02;;;;;;;0.10;0.10;;;;;;;20.63;39.69;103224.59;5048972;28;20289;-62
2023/05/26 08:09:27;;;;;;;0.20;0.20;;;;;;;20.45;40.09;103224.66;5048971;28;20037;-68
2023/05/26 08:11:52;;;;;;;0.22;0.22;;;;;;;19.84;41.24;103225.66;4999532;28;1199778;-64
2023/05/26 08:14:20;;;;;;;0.20;0.20;;;;;;;20.78;39.50;103231.28;5029987;28;20037;-64
2023/05/26 08:16:45;;;;;;;0.20;0.20;;;;;;;20.43;39.96;103226.78;5030153;28;20063;-64
2023/05/26 08:19:11;;;;;;;0.20;0.20;;;;;;;19.96;40.95;103228.47;5030172;28;20037;-63
2023/05/26 08:21:36;;;;;;;0.20;0.20;;;;;;;19.67;41.90;103229.25;5030052;28;20081;-64
2023/05/26 08:24:02;;;;;;;1.75;0.65;;;;;;;19.51;42.75;103232.56;5030237;28;20026;-65
2023/05/26 08:26:28;;;;;;;4.78;0.93;;;;;;;18.46;45.16;103224.44;5011682;28;20504;-63
2023/05/26 08:28:53;;;;;;;0.20;0.20;;;;;;;20.38;40.16;103227.50;5028864;28;20041;-64
2023/05/26 08:31:19;;;;;;;0.20;0.20;;;;;;;20.05;41.02;103225.19;5029789;28;20040;-63
2023/05/26 08:33:44;;;;;;;0.10;0.10;;;;;;;21.13;39.30;103222.31;5029648;28;20033;-64
2023/05/26 08:36:10;;;;;;;0.20;0.20;;;;;;;21.21;38.37;103224.69;5030080;28;20032;-62
2023/05/26 08:38:35;;;;;;;0.20;0.20;;;;;;;20.85;38.81;103221.06;5029587;28;20038;-62
2023/05/26 08:41:04;;;;;;;0.30;0.30;;;;;;;19.98;41.63;103232.63;5011754;28;20033;-63
2023/05/26 08:43:44;;;;;;;0.20;0.20;;;;;;;20.77;39.12;103226.06;5029879;28;20048;-64
2023/05/26 08:46:11;;;;;;;0.10;0.10;;;;;;;20.58;40.01;103219.81;5014201;28;20038;-63
2023/05/26 08:48:39;;;;;;;0.20;0.20;;;;;;;21.06;40.12;103216.13;5029742;28;20037;-64
2023/05/26 08:51:08;;;;;;;0.20;0.20;;;;;;;20.57;40.02;103231.00;5011541;28;20052;-64
2023/05/26 08:53:33;;;;;;;0.15;0.15;;;;;;;19.47;41.33;103224.00;5011739;28;20033;-63
2023/05/26 08:56:03;;;;;;;0.10;0.10;;;;;;;21.44;37.79;103221.94;5029174;28;20032;-63
2023/05/26 08:58:31;;;;;;;0.10;0.10;;;;;;;21.95;36.50;103215.66;5011528;28;20053;-64
2023/05/26 09:00:57;;;;;;;0.20;0.20;;;;;;;21.47;37.07;103218.72;5029277;28;20025;-62
2023/05/26 09:03:23;;;;;;;0.10;0.10;;;;;;;20.27;39.32;103231.00;5041535;28;20063;-63
2023/05/26 09:05:48;;;;;;;0.13;0.13;;;;;;;20.88;38.73;103230.69;5031573;28;20446;-64
2023/05/26 09:08:14;;;;;;;0.17;0.17;;;;;;;22.09;35.84;103228.00;5029302;28;20041;-64
2023/05/26 09:10:40;;;;;;;0.10;0.10;;;;;;;22.04;37.14;103233.38;5029340;28;20394;-62
2023/05/26 09:13:09;;;;;;;0.10;0.10;;;;;;;22.09;36.69;103231.59;5044234;28;20464;-63
2023/05/26 09:15:36;;;;;;;0.20;0.20;;;;;;;22.35;35.80;103235.63;5049287;28;20051;-64
2023/05/26 09:18:06;;;;;;;0.13;0.13;;;;;;;21.87;37.22;103230.56;5049648;28;20020;-63
2023/05/26 09:20:32;;;;;;;0.10;0.10;;;;;;;22.54;35.67;103224.19;5048933;28;20027;-63
2023/05/26 09:22:58;;;;;;;0.20;0.20;;;;;;;22.92;36.45;103223.50;5048902;28;20079;-64
2023/05/26 09:25:45;;;;;;;0.15;0.15;;;;;;;22.94;35.71;103217.78;5048818;28;20040;-64
2023/05/26 09:28:13;;;;;;;0.10;0.10;;;;;;;22.52;35.96;103229.13;5033245;28;20032;-63
2023/05/26 09:30:43;;;;;;;0.10;0.10;;;;;;;22.49;35.65;103228.75;5048911;28;20029;-63
2023/05/26 09:33:11;;;;;;;0.10;0.10;;;;;;;23.15;34.71;103226.09;5049309;28;20090;-64
2023/05/26 09:35:37;;;;;;;0.20;0.20;;;;;;;23.05;34.56;103225.94;5048849;28;20051;-63
2023/05/26 09:38:05;;;;;;;0.10;0.10;;;;;;;22.40;35.16;103222.88;5032744;28;20029;-62
2023/05/26 09:40:30;;;;;;;0.10;0.10;;;;;;;22.65;34.10;103217.03;5048756;28;20033;-64
2023/05/26 09:42:56;;;;;;;0.10;0.10;;;;;;;22.72;33.08;103217.72;5030828;28;20515;-63
2023/05/26 09:45:21;;;;;;;0.10;0.10;;;;;;;22.60;33.75;103220.50;5031243;28;20048;-63
2023/05/26 09:47:56;;;;;;;0.20;0.20;;;;;;;23.23;33.72;103219.34;5048942;28;20041;-63
2023/05/26 09:50:24;;;;;;;0.13;0.13;;;;;;;23.59;32.11;103227.00;5042420;28;20587;-63
2023/05/26 09:52:49;;;;;;;0.10;0.10;;;;;;;23.55;32.88;103218.44;5042368;28;20037;-63
2023/05/26 09:55:16;;;;;;;0.10;0.10;;;;;;;22.60;33.39;103215.00;5042724;28;20029;-63
2023/05/26 09:57:43;;;;;;;0.10;0.10;;;;;;;22.16;34.62;103217.72;5038736;28;20060;-66
2023/05/26 10:00:10;;;;;;;0.10;0.10;;;;;;;22.03;35.44;103210.66;5048099;28;20017;-63
2023/05/26 10:02:37;;;;;;;0.10;0.10;;;;;;;21.51;37.11;103212.53;5041718;28;20037;-63
2023/05/26 10:05:03;;;;;;;0.10;0.10;;;;;;;21.56;37.09;103223.56;5039069;28;20029;-63
2023/05/26 10:07:30;;;;;;;0.10;0.10;;;;;;;21.87;36.85;103211.41;5054012;28;20040;-63
2023/05/26 10:09:55;;;;;;;0.10;0.10;;;;;;;23.90;32.69;103212.56;5048477;28;20033;-64
2023/05/26 10:12:28;;;;;;;0.10;0.10;;;;;;;22.06;36.19;103209.31;5048731;28;20542;-63
2023/05/26 10:14:53;;;;;;;0.10;0.10;;;;;;;23.13;33.42;103206.31;5053306;28;20508;-63
2023/05/26 10:17:21;;;;;;;0.10;0.10;;;;;;;22.59;33.85;103213.38;5057207;28;20071;-64
2023/05/26 10:19:46;;;;;;;0.10;0.10;;;;;;;23.99;32.07;103213.78;5058438;28;20033;-62
2023/05/26 10:22:18;;;;;;;0.10;0.10;;;;;;;23.47;32.15;103207.06;5051377;28;20129;-63
2023/05/26 10:24:53;;;;;;;0.00;0.00;;;;;;;23.97;31.03;103210.47;5047564;28;20106;-64
2023/05/26 10:27:31;;;;;;;0.10;0.10;;;;;;;23.38;30.50;103205.84;5057110;28;20029;-63
2023/05/26 10:30:08;;;;;;;0.10;0.10;;;;;;;24.13;29.76;103204.09;5056894;28;20041;-63
2023/05/26 10:32:42;;;;;;;0.10;0.10;;;;;;;23.94;30.31;103196.44;5055995;28;20068;-63
2023/05/26 10:35:24;;;;;;;0.10;0.10;;;;;;;24.81;29.10;103206.13;5054364;28;20087;-63
2023/05/26 10:38:11;;;;;;;0.00;0.00;;;;;;;24.63;28.61;103211.19;5054854;28;20036;-62
2023/05/26 10:40:49;;;;;;;0.00;0.00;;;;;;;24.33;28.70;103203.47;5046054;28;20536;-67
2023/05/26 10:43:22;;;;;;;0.10;0.10;;;;;;;23.98;28.96;103205.81;5048354;28;20051;-63
2023/05/26 10:46:02;;;;;;;0.10;0.10;;;;;;;23.92;29.02;103210.38;5048586;28;20025;-62
2023/05/26 10:48:35;;;;;;;;;;;;;;;24.94;27.88;103202.09;5048950;28;20102;-64
2023/05/26 10:51:05;;;;;;;0.10;0.10;;;;;;;24.76;28.45;103203.34;5048649;28;19956;-65
2023/05/26 10:53:39;;;;;;;0.10;0.10;;;;;;;24.24;29.08;103207.75;5051756;28;20033;-65
2023/05/26 10:56:08;;;;;;;0.08;0.08;;;;;;;24.23;29.41;103200.63;5065824;28;20032;-64
2023/05/26 10:58:35;;;;;;;0.10;0.10;;;;;;;24.27;29.18;103199.00;5068984;28;20123;-62
2023/05/26 11:01:12;;;;;;;0.10;0.10;;;;;;;24.84;28.34;103205.63;5042164;28;20501;-65
2023/05/26 11:03:42;;;;;;;0.10;0.10;;;;;;;24.29;28.86;103196.84;5031740;28;20028;-65
2023/05/26 11:06:08;;;;;;;0.00;0.00;;;;;;;25.31;28.52;103191.88;5032346;28;20481;-64
2023/05/26 11:08:39;;;;;;;0.10;0.10;;;;;;;25.45;27.93;103179.34;5031437;28;20401;-66
2023/05/26 11:11:09;;;;;;;0.00;0.00;;;;;;;23.99;30.08;103196.47;5031408;28;20061;-62
2023/05/26 11:13:46;;;;;;;0.10;0.10;;;;;;;24.10;28.69;103190.03;5031270;28;20037;-63
2023/05/26 11:16:18;;;;;;;0.03;0.03;;;;;;;24.37;28.32;103188.13;5042082;28;20033;-62
2023/05/26 11:18:48;;;;;;;0.00;0.00;;;;;;;25.71;26.83;103189.34;5051179;28;20033;-63
2023/05/26 11:21:15;;;;;;;0.10;0.10;;;;;;;25.38;26.45;103175.94;5051555;28;20055;-63
2023/05/26 11:23:41;;;;;;;0.00;0.00;;;;;;;26.32;25.98;103187.59;5051086;28;20037;-66